Orléans – Saint-Denis-de-l'Hôtel Airport

LFOZ · Région Centre, France

3 octobre 2022

Temps Code Temps Temp. Vue Base cloud Vent METAR/SPECI
04:00
I
13 °C 10 km+ 900 ft 040° 040° 4 kt METAR LFOZ 030200Z AUTO 04004KT 9999 OVC009 13/12 Q1026
03:30
I
14 °C 10 km+ 700 ft 070° 070° 7 kt METAR LFOZ 030130Z AUTO 07007KT 9999 OVC007 14/12 Q1026
03:00
I
14 °C 10 km+ 800 ft 060° 060° 5 kt METAR LFOZ 030100Z AUTO 06005KT 9999 OVC008 14/12 Q1026
02:30
I
14 °C 10 km+ 900 ft 060° 060° 7 kt METAR LFOZ 030030Z AUTO 06007KT 9999 OVC009 14/12 Q1026
02:00
I
14 °C 10 km+ 900 ft 050° 050° 7 kt METAR LFOZ 030000Z AUTO 05007KT 9999 OVC009 14/12 Q1026
01:30
I
14 °C 10 km+ 900 ft 040° 040° 5 kt METAR LFOZ 022330Z AUTO 04005KT 010V070 9999 OVC009 14/12 Q1026
01:00
I
14 °C 10 km+ 900 ft 050° 050° 5 kt METAR LFOZ 022300Z AUTO 05005KT 9999 OVC009 14/13 Q1026
00:30
M
14 °C 10 km+ 1.000 ft Var Var 3 kt METAR LFOZ 022230Z AUTO VRB03KT 9999 BKN010 OVC038 14/13 Q1026
00:00
V
14 °C 10 km+ 3.200 ft 030° 030° 4 kt METAR LFOZ 022200Z AUTO 03004KT 350V080 9999 SCT008 SCT019 BKN032 14/13 Q1026

2 octobre 2022

Temps Code Temps Temp. Vue Base cloud Vent METAR/SPECI
23:30
I
15 °C 10 km+ 700 ft 020° 020° 5 kt METAR LFOZ 022130Z AUTO 02005KT 360V060 9999 BKN007 BKN014 OVC032 15/14 Q1026
23:00
I
16 °C 10 km+ 700 ft 010° 010° 3 kt METAR LFOZ 022100Z AUTO 01003KT 9999 BKN007 BKN013 BKN033 16/14 Q1025
22:30
V
16 °C 10 km+ 3.200 ft 010° 010° 3 kt METAR LFOZ 022030Z AUTO 01003KT 9999 BKN032 BKN039 BKN045 16/14 Q1025
22:00
M
16 °C 10 km+ 2.900 ft 330° 330° 3 kt METAR LFOZ 022000Z AUTO 33003KT 9999 BKN029 OVC034 16/14 Q1025
21:30
V
16 °C 10 km+ 6.000 ft Var Var 3 kt METAR LFOZ 021930Z AUTO VRB03KT 9999 SCT031 SCT039 OVC060 16/14 Q1024
21:00
V
16 °C 10 km+ 4.500 ft 330° 330° 1 kt METAR LFOZ 021900Z AUTO 33001KT 9999 SCT035 BKN045 BKN068 16/14 Q1024
20:30
V
16 °C 10 km+ - Var Var 2 kt METAR LFOZ 021830Z AUTO VRB02KT 9999 FEW040/// SCT046/// ///TCU 16/14 Q1024
20:00
V
17 °C 10 km+ 5.000 ft 020° 020° 3 kt METAR LFOZ 021800Z AUTO 02003KT 9999 FEW029 SCT044 BKN050 17/14 Q1024
19:30
V
18 °C 10 km+ 3.500 ft 290° 290° 3 kt METAR LFOZ 021730Z AUTO 29003KT 250V020 9999 FEW030/// BKN035/// BKN052/// ///TCU 18/15 Q1023
19:00
V
18 °C 10 km+ 7.400 ft 290° 290° 5 kt METAR LFOZ 021700Z AUTO 29005KT 260V320 9999 FEW043/// BKN074/// OVC084/// ///TCU 18/15 Q1023
18:30
M
19 °C 10 km+ 2.900 ft 260° 260° 9 kt METAR LFOZ 021630Z AUTO 26009KT 9999 BKN029/// BKN038/// OVC074/// ///TCU 19/15 Q1023
18:00
V
21 °C 10 km+ 3.700 ft 260° 260° 11 kt METAR LFOZ 021600Z AUTO 26011KT 220V280 9999 SCT031/// BKN037/// BKN070/// ///TCU 21/15 Q1022
17:30
V
21 °C 10 km+ 7.200 ft 250° 250° 8 kt METAR LFOZ 021530Z AUTO 25008KT 9999 FEW023 BKN072 21/15 Q1022
17:00
M
20 °C 10 km+ 2.300 ft 250° 250° 9 kt METAR LFOZ 021500Z AUTO 25009KT 9999 BKN023 BKN031 BKN070 20/15 Q1022
16:30
V
20 °C 10 km+ 6.600 ft 250° 250° 10 kt METAR LFOZ 021430Z AUTO 25010KT 9999 FEW023/// BKN066/// OVC140/// ///TCU 20/16 Q1022
16:00
V
20 °C 10 km+ 6.600 ft 260° 260° 9 kt METAR LFOZ 021400Z AUTO 26009KT 220V290 9999 FEW019/// BKN066/// ///TCU 20/17 Q1022
15:30
V
18 °C 10 km+ 5.200 ft 240° 240° 10 kt METAR LFOZ 021330Z AUTO 24010KT 9999 FEW011 SCT018 BKN052 18/16 Q1022
15:00
I
19 °C 4,5 km 2.500 ft 240° 240° 13 kt METAR LFOZ 021300Z AUTO 24013KT 9999 4500 BKN025 BKN036 BKN043 19/15 Q1022
14:30
M
20 °C 10 km+ 2.300 ft 250° 250° 11 kt METAR LFOZ 021230Z AUTO 25011KT 220V280 9999 BKN023 BKN034 BKN045 20/15 Q1022
14:00
M
19 °C 10 km+ 2.100 ft 240° 240° 14 kt METAR LFOZ 021200Z AUTO 24014KT 220V280 9999 BKN021 BKN027 OVC054 19/15 Q1022
13:30
M
19 °C 10 km+ 2.200 ft 240° 240° 11 kt METAR LFOZ 021130Z AUTO 24011KT 210V270 9999 SCT017 BKN022 BKN028 19/15 Q1022
13:00
M
18 °C 10 km+ 1.300 ft 240° 240° 11 kt METAR LFOZ 021100Z AUTO 24011KT 210V270 9999 BKN013 OVC018 18/16 Q1022
12:30
I
17 °C 5 km 900 ft 230° 230° 14 kt METAR LFOZ 021030Z AUTO 23014KT 200V260 5000 BR BKN009 OVC014 17/16 Q1022
12:00
I
17 °C 6 km 900 ft 230° 230° 11 kt METAR LFOZ 021000Z AUTO 23011KT 6000 BKN009 OVC015 17/16 Q1022
11:30
M
17 °C 9 km 1.200 ft 240° 240° 12 kt METAR LFOZ 020930Z AUTO 24012KT 210V270 9000 OVC012 17/15 Q1022
11:00
M
17 °C 10 km+ 1.200 ft 230° 230° 13 kt METAR LFOZ 020900Z AUTO 23013KT 9999 OVC012 17/15 Q1022
10:30
M
17 °C 10 km+ 1.300 ft 240° 240° 13 kt METAR LFOZ 020830Z AUTO 24013KT 9999 OVC013 17/15 Q1022
10:00
M
17 °C 10 km+ 1.500 ft 240° 240° 9 kt METAR LFOZ 020800Z AUTO 24009KT 9999 BKN015 OVC030 17/15 Q1022
09:30
M
16 °C 10 km+ 1.300 ft 230° 230° 11 kt METAR LFOZ 020730Z AUTO 23011KT 9999 OVC013 16/15 Q1022
09:00
M
16 °C 10 km+ 1.200 ft 240° 240° 9 kt METAR LFOZ 020700Z AUTO 24009KT 210V280 9999 BKN012 OVC017 16/15 Q1021
08:30
M
16 °C 10 km+ 1.400 ft 250° 250° 8 kt METAR LFOZ 020630Z AUTO 25008KT 9999 BKN014 OVC036 16/15 Q1021
08:00
M
16 °C 10 km+ 1.600 ft 240° 240° 10 kt METAR LFOZ 020600Z AUTO 24010KT 9999 BKN016 BKN045 OVC240 16/15 Q1021
07:30
V
16 °C 10 km+ 4.000 ft 250° 250° 7 kt METAR LFOZ 020530Z AUTO 25007KT 9999 SCT034 BKN040 OVC250 16/15 Q1021
07:00
M
16 °C 10 km+ 2.600 ft 250° 250° 10 kt METAR LFOZ 020500Z AUTO 25010KT 9999 SCT009 SCT014 BKN026 16/15 Q1021
06:30
I
17 °C 10 km+ 600 ft 240° 240° 12 kt METAR LFOZ 020430Z AUTO 24012KT 9999 -DZ OVC006 17/16 Q1020
06:00
I
17 °C 6 km 500 ft 230° 230° 8 kt METAR LFOZ 020400Z AUTO 23008KT 6000 -DZ OVC005 17/17 Q1021
05:30
I
17 °C 7 km 600 ft 240° 240° 8 kt METAR LFOZ 020330Z AUTO 24008KT 7000 OVC006 17/17 Q1021
05:00
I
17 °C 10 km+ 800 ft 220° 220° 7 kt METAR LFOZ 020300Z AUTO 22007KT 9999 OVC008 17/16 Q1021
04:30
I
17 °C 10 km+ 800 ft 240° 240° 7 kt METAR LFOZ 020230Z AUTO 24007KT 9999 BKN008 OVC013 17/16 Q1021
04:00
I
17 °C 10 km+ 900 ft 230° 230° 7 kt METAR LFOZ 020200Z AUTO 23007KT 9999 OVC009 17/16 Q1021
03:30
M
17 °C 10 km+ 1.000 ft 230° 230° 7 kt METAR LFOZ 020130Z AUTO 23007KT 9999 OVC010 17/16 Q1021
03:00
I
17 °C 10 km+ 700 ft 230° 230° 7 kt METAR LFOZ 020100Z AUTO 23007KT 9999 BKN007 OVC013 17/16 Q1021
02:30
I
16 °C 10 km+ 700 ft 230° 230° 7 kt METAR LFOZ 020030Z AUTO 23007KT 9999 BKN007 OVC011 16/16 Q1021
02:00
M
16 °C 10 km+ 1.000 ft 220° 220° 6 kt METAR LFOZ 020000Z AUTO 22006KT 9999 OVC010 16/16 Q1021
01:30
V
16 °C 10 km+ 5.600 ft 220° 220° 6 kt METAR LFOZ 012330Z AUTO 22006KT 9999 SCT013 BKN056 OVC070 16/15 Q1021
01:00
M
16 °C 10 km+ 1.300 ft 240° 240° 6 kt METAR LFOZ 012300Z AUTO 24006KT 210V280 9999 BKN013 OVC058 16/15 Q1021
00:30
M
16 °C 10 km+ 1.000 ft 240° 240° 6 kt METAR LFOZ 012230Z AUTO 24006KT 9999 OVC010 16/15 Q1021
00:00
M
15 °C 10 km+ 1.000 ft 210° 210° 6 kt METAR LFOZ 012200Z AUTO 21006KT 9999 BKN010 BKN090 15/15 Q1021

1 octobre 2022

Temps Code Temps Temp. Vue Base cloud Vent METAR/SPECI
23:30
I
16 °C 10 km+ 900 ft 220° 220° 6 kt METAR LFOZ 012130Z AUTO 22006KT 9999 BKN009 BKN013 16/15 Q1021
23:00
V
16 °C 10 km+ - 230° 230° 6 kt METAR LFOZ 012100Z AUTO 23006KT 9999 FEW013 16/15 Q1020
22:30
V
17 °C 10 km+ - 240° 240° 5 kt METAR LFOZ 012030Z AUTO 24005KT 9999 FEW012 17/15 Q1020
22:00
V
17 °C 10 km+ - 240° 240° 6 kt METAR LFOZ 012000Z AUTO 24006KT 9999 FEW011 17/15 Q1020
21:30
V
17 °C 10 km+ - 250° 250° 7 kt METAR LFOZ 011930Z AUTO 25007KT CAVOK 17/15 Q1020
21:00
V
17 °C 10 km+ - 250° 250° 6 kt METAR LFOZ 011900Z AUTO 25006KT CAVOK 17/15 Q1019
20:30
V
18 °C 10 km+ - 250° 250° 7 kt METAR LFOZ 011830Z AUTO 25007KT 9999 FEW034 18/15 Q1019
20:00
V
18 °C 10 km+ - 250° 250° 8 kt METAR LFOZ 011800Z AUTO 25008KT 9999 FEW030 SCT047 18/15 Q1018
19:30
V
19 °C 10 km+ 3.700 ft 250° 250° 6 kt METAR LFOZ 011730Z AUTO 25006KT 9999 BKN037 BKN047 OVC056 19/14 Q1018
19:00
V
20 °C 10 km+ 6.000 ft 250° 250° 9 kt METAR LFOZ 011700Z AUTO 25009KT 9999 FEW037 SCT050 BKN060 20/14 Q1017
18:30
V
20 °C 10 km+ - 260° 260° 7 kt METAR LFOZ 011630Z AUTO 26007KT 230V290 9999 ///TCU 20/14 Q1017
18:00
V
19 °C 10 km+ - 260° 260° 9 kt METAR LFOZ 011600Z AUTO 26009KT 9999 FEW042 SCT060 19/13 Q1016
17:30
V
20 °C 10 km+ 6.200 ft 270° 270° 12 kt METAR LFOZ 011530Z AUTO 27012KT 9999 FEW042 BKN062 20/13 Q1016
17:00
V
22 °C 10 km+ 4.000 ft 270° 270° 11 kt METAR LFOZ 011500Z AUTO 27011KT 230V300 9999 BKN040 BKN050 BKN060 22/13 Q1016
16:30
V
21 °C 10 km+ 4.700 ft 280° 280° 10 kt METAR LFOZ 011430Z AUTO 28010KT 230V310 9999 FEW040 BKN047 BKN058 21/15 Q1016
16:00
V
20 °C 10 km+ 4.500 ft 290° 290° 10 kt METAR LFOZ 011400Z AUTO 29010KT 9999 FEW037 BKN045 BKN058 20/15 Q1015
15:30
V
20 °C 10 km+ 5.200 ft 280° 280° 12 kt METAR LFOZ 011330Z AUTO 28012KT 9999 SCT045 BKN052 BKN120 20/15 Q1015
15:00
V
19 °C 10 km+ - 270° 270° 11 kt METAR LFOZ 011300Z AUTO 27011KT 9999 FEW031 SCT054 19/15 Q1015
14:30
V
17 °C 10 km+ 3.500 ft 270° 270° 9 kt METAR LFOZ 011230Z AUTO 27009KT 9999 FEW020/// BKN035/// BKN042/// ///TCU 17/16 Q1015
14:00
M
16 °C 10 km+ 2.200 ft 290° 290° 11 kt METAR LFOZ 011200Z AUTO 29011KT 9999 -RA SCT011/// BKN022/// BKN035/// ///TCU 16/15 Q1014
13:30
M
17 °C 10 km+ 1.800 ft 270° 270° 7 kt METAR LFOZ 011130Z AUTO 27007KT 230V300 9999 SCT009/// OVC018/// ///TCU 17/16 Q1014
13:00
M
17 °C 10 km+ 1.000 ft 270° 270° 9 kt METAR LFOZ 011100Z AUTO 27009KT 240V300 9999 BKN010 BKN015 BKN020 17/16 Q1014
12:30
M
16 °C 10 km+ 1.200 ft 270° 270° 10 kt METAR LFOZ 011030Z AUTO 27010KT 9999 -RADZ FEW007 BKN012 OVC020 16/15 Q1014
12:00
I
16 °C 5 km 800 ft 250° 250° 8 kt METAR LFOZ 011000Z AUTO 25008KT 220V280 5000 -DZ BR BKN008 BKN014 OVC031 16/15 Q1014
11:30
I
17 °C 10 km+ 900 ft 240° 240° 8 kt METAR LFOZ 010930Z AUTO 24008KT 9999 BKN009/// BKN014/// OVC036/// ///TCU 17/16 Q1013
11:00
M
16 °C 10 km+ 1.200 ft 240° 240° 7 kt METAR LFOZ 010900Z AUTO 24007KT 210V270 9999 FEW006 BKN012 BKN017 16/15 Q1013
10:30
I
16 °C 10 km+ 600 ft 250° 250° 8 kt METAR LFOZ 010830Z AUTO 25008KT 9999 OVC006 16/15 Q1013
10:00
I
16 °C 10 km+ 600 ft 230° 230° 9 kt METAR LFOZ 010800Z AUTO 23009KT 9999 OVC006 16/15 Q1012
09:30
I
15 °C 9 km 600 ft 230° 230° 10 kt METAR LFOZ 010730Z AUTO 23010KT 210V270 9000 OVC006 15/15 Q1012
09:00
I
15 °C 10 km+ 600 ft 220° 220° 9 kt METAR LFOZ 010700Z AUTO 22009KT 9999 OVC006 15/14 Q1011
08:30
I
14 °C 10 km+ 600 ft 230° 230° 8 kt METAR LFOZ 010630Z AUTO 23008KT 210V270 9999 OVC006/// ///TCU 14/14 Q1011
08:00
I
14 °C 5 km 600 ft 220° 220° 12 kt METAR LFOZ 010600Z AUTO 22012KT 5000 BR OVC006 14/14 Q1011
07:30
I
14 °C 8 km 600 ft 220° 220° 14 kt METAR LFOZ 010530Z AUTO 22014KT 8000 -DZ OVC006 14/13 Q1010
07:00
I
14 °C 7 km 600 ft 220° 220° 14 kt METAR LFOZ 010500Z AUTO 22014KT 7000 -DZ OVC006 14/13 Q1010
06:30
I
13 °C 9 km 600 ft 210° 210° 15 kt METAR LFOZ 010430Z AUTO 21015KT 9000 OVC006 13/13 Q1010
06:00
I
13 °C 7 km 600 ft 220° 220° 16 kt METAR LFOZ 010400Z AUTO 22016KT 7000 OVC006 13/13 Q1010
05:30
I
13 °C 10 km+ 700 ft 210° 210° 15 kt METAR LFOZ 010330Z AUTO 21015KT 9999 BKN007 OVC013 13/12 Q1010
05:00
I
13 °C 10 km+ 700 ft 210° 210° 17 kt METAR LFOZ 010300Z AUTO 21017KT 9999 OVC007 13/12 Q1010
04:30
I
13 °C 10 km+ 800 ft 210° 210° 17 - 28 kt METAR LFOZ 010230Z AUTO 21017G28KT 9999 -RA BKN008 OVC012 13/12 Q1010
04:00
I
13 °C 9 km 800 ft 200° 200° 15 kt METAR LFOZ 010200Z AUTO 20015KT 9000 OVC008 13/12 Q1011
03:30
I
12 °C 10 km+ 700 ft 210° 210° 16 kt METAR LFOZ 010130Z AUTO 21016KT 9999 OVC007 12/11 Q1011
03:00
I
12 °C 7 km 800 ft 200° 200° 16 kt METAR LFOZ 010100Z AUTO 20016KT 7000 -DZ BKN008 OVC012 12/12 Q1011
02:30
I
12 °C 10 km+ 900 ft 210° 210° 14 kt METAR LFOZ 010030Z AUTO 21014KT 9999 -RA BKN009/// BKN013/// OVC045/// ///TCU 12/11 Q1012
02:00
M
12 °C 10 km+ 2.100 ft 200° 200° 15 kt METAR LFOZ 010000Z AUTO 20015KT 9999 -RA FEW012/// BKN021/// BKN031/// ///TCU 12/11 Q1012
01:30
V
12 °C 10 km+ 6.000 ft 210° 210° 13 kt METAR LFOZ 302330Z AUTO 21013KT 9999 -RA FEW021/// SCT029/// OVC060/// ///TCU 12/11 Q1012
01:00
V
12 °C 10 km+ 3.700 ft 210° 210° 11 kt METAR LFOZ 302300Z AUTO 21011KT 9999 -RA FEW022/// SCT029/// BKN037/// ///TCU 12/10 Q1013
00:30
V
12 °C 10 km+ 8.800 ft 210° 210° 9 kt METAR LFOZ 302230Z AUTO 21009KT 9999 -RA FEW038/// OVC088/// ///TCU 12/10 Q1013
00:00
V
12 °C 10 km+ 8.600 ft 220° 220° 10 kt METAR LFOZ 302200Z AUTO 22010KT 9999 -RA FEW041/// BKN086/// OVC100/// ///TCU 12/09 Q1013

30 septembre 2022

Temps Code Temps Temp. Vue Base cloud Vent METAR/SPECI
23:30
V
13 °C 10 km+ - 200° 200° 12 kt METAR LFOZ 302130Z AUTO 20012KT 9999 -RA ///TCU 13/09 Q1013
23:00
V
13 °C 10 km+ 10.000 ft 200° 200° 9 kt METAR LFOZ 302100Z AUTO 20009KT 9999 FEW047/// OVC100/// ///TCU 13/08 Q1013
22:30
V
13 °C 10 km+ - 200° 200° 8 kt METAR LFOZ 302030Z AUTO 20008KT CAVOK 13/08 Q1013
22:00
V
12 °C 10 km+ - 190° 190° 8 kt METAR LFOZ 302000Z AUTO 19008KT CAVOK 12/08 Q1013
21:30
V
12 °C 10 km+ - 200° 200° 7 kt METAR LFOZ 301930Z AUTO 20007KT CAVOK 12/08 Q1013
21:00
V
12 °C 10 km+ - 200° 200° 5 kt METAR LFOZ 301900Z AUTO 20005KT CAVOK 12/08 Q1013
20:30
V
11 °C 10 km+ - 200° 200° 4 kt METAR LFOZ 301830Z AUTO 20004KT CAVOK 11/08 Q1013
20:00
V
12 °C 10 km+ - 210° 210° 5 kt METAR LFOZ 301800Z AUTO 21005KT CAVOK 12/08 Q1013
19:30
V
13 °C 10 km+ - 210° 210° 5 kt METAR LFOZ 301730Z AUTO 21005KT CAVOK 13/08 Q1013
19:00
V
15 °C 10 km+ 21.000 ft 210° 210° 6 kt METAR LFOZ 301700Z AUTO 21006KT 9999 FEW049 BKN210 BKN250 15/08 Q1013
Données plus anciennes

Nous et des tiers suivons ton comportement sur Internet sur notre site Web à l'aide de cookies. Si tu continues, nous supposons que tu acceptes notre politique en matière de cookies. Apprendre plus